Time;durP1;ratioP1;P1;durP2;ratioP2;P2;SDS_P1;SDS_P2;PMS_P1;PMS_P2;Temp;Humidity;BMP_temperature;BMP_pressure;BME280_temperature;BME280_humidity;BME280_pressure;Samples;Min_cycle;Max_cycle;Signal;HPM_P1;HPM_P2
2023/11/23 00:01:33;;;;;;;3.80;2.42;;;;;;;8.42;85.77;94231.34;4870647;29;20037;-81
2023/11/23 00:03:59;;;;;;;6.30;2.58;;;;;;;8.39;86.29;94226.59;4870761;29;20058;-81
2023/11/23 00:06:25;;;;;;;5.20;2.85;;;;;;;8.38;86.59;94231.09;4870637;29;20029;-80
2023/11/23 00:08:50;;;;;;;6.63;3.50;;;;;;;8.37;86.96;94231.41;4870707;29;20021;-80
2023/11/23 00:11:16;;;;;;;4.57;2.95;;;;;;;8.39;87.37;94232.69;4870484;29;20033;-80
2023/11/23 00:13:42;;;;;;;4.88;3.22;;;;;;;8.42;87.44;94241.97;4868946;29;20223;-80
2023/11/23 00:16:07;;;;;;;6.15;2.90;;;;;;;8.35;87.82;94241.53;4870293;29;20104;-81
2023/11/23 00:18:33;;;;;;;7.43;3.60;;;;;;;8.34;87.90;94239.94;4870503;29;20025;-82
2023/11/23 00:20:58;;;;;;;7.47;3.67;;;;;;;8.28;88.40;94235.78;4870418;29;20040;-82
2023/11/23 00:23:24;;;;;;;9.90;4.18;;;;;;;8.24;88.84;94241.69;4870516;29;20022;-82
2023/11/23 00:25:49;;;;;;;7.53;3.97;;;;;;;8.28;89.16;94249.06;4870356;29;20070;-82
2023/11/23 00:28:14;;;;;;;7.28;3.78;;;;;;;8.19;89.03;94238.31;4870299;29;20149;-82
2023/11/23 00:30:40;;;;;;;7.88;3.75;;;;;;;8.17;89.63;94246.56;4870144;29;20041;-82
2023/11/23 00:33:05;;;;;;;9.80;4.03;;;;;;;8.13;90.26;94244.78;4868729;29;20037;-80
2023/11/23 00:35:31;;;;;;;10.52;4.63;;;;;;;8.13;90.36;94245.56;4870008;29;20040;-80
2023/11/23 00:37:56;;;;;;;7.40;4.05;;;;;;;8.11;90.59;94258.34;4870065;29;20113;-80
2023/11/23 00:40:22;;;;;;;12.32;4.20;;;;;;;8.12;90.77;94264.44;4869960;29;20022;-80
2023/11/23 00:42:47;;;;;;;7.65;3.90;;;;;;;8.08;90.77;94268.72;4870304;29;20033;-80
2023/11/23 00:45:15;;;;;;;10.13;5.68;;;;;;;8.04;91.05;94279.94;4869828;29;20223;-81
2023/11/23 00:47:43;;;;;;;10.23;4.53;;;;;;;8.02;91.54;94270.69;4870510;29;20045;-82
2023/11/23 00:50:09;;;;;;;14.52;5.00;;;;;;;7.99;91.40;94281.88;4869265;29;20097;-81
2023/11/23 00:52:34;;;;;;;8.40;4.47;;;;;;;7.95;91.74;94283.50;4875779;29;20018;-81
2023/11/23 00:55:04;;;;;;;12.02;4.35;;;;;;;7.91;92.10;94274.53;4875998;29;20104;-78
2023/11/23 00:57:30;;;;;;;7.43;4.15;;;;;;;7.90;92.49;94280.94;4875966;29;20026;-78
2023/11/23 00:59:56;;;;;;;9.77;4.40;;;;;;;7.91;92.49;94271.88;4874798;29;20375;-78
2023/11/23 01:02:21;;;;;;;7.75;3.88;;;;;;;7.93;92.76;94267.09;4875740;29;20032;-79
2023/11/23 01:04:48;;;;;;;14.57;4.53;;;;;;;7.96;92.82;94263.88;4876033;29;20029;-79
2023/11/23 01:07:13;;;;;;;6.65;3.50;;;;;;;7.99;92.56;94273.91;4875875;29;20048;-79
2023/11/23 01:09:38;;;;;;;6.55;3.45;;;;;;;8.02;92.20;94265.38;4876217;29;20059;-77
2023/11/23 01:12:08;;;;;;;7.20;3.35;;;;;;;8.02;91.41;94273.34;4876165;29;20021;-77
2023/11/23 01:14:34;;;;;;;7.90;3.38;;;;;;;8.01;91.80;94279.72;4875831;29;20021;-78
2023/11/23 01:17:00;;;;;;;5.53;3.17;;;;;;;8.02;91.73;94282.09;4875848;29;20021;-78
2023/11/23 01:19:25;;;;;;;6.20;3.25;;;;;;;8.04;91.60;94282.59;4875820;29;20029;-78
2023/11/23 01:21:50;;;;;;;5.50;3.47;;;;;;;8.08;91.65;94287.31;4875917;29;20040;-78
2023/11/23 01:24:17;;;;;;;6.45;3.30;;;;;;;8.06;91.99;94284.97;4875671;29;20032;-78
2023/11/23 01:26:42;;;;;;;8.63;3.70;;;;;;;8.08;91.98;94274.03;4875499;29;20051;-77
2023/11/23 01:29:08;;;;;;;10.10;3.20;;;;;;;8.11;92.28;94273.50;4875843;29;20029;-78
2023/11/23 01:31:34;;;;;;;5.57;3.00;;;;;;;8.09;91.54;94279.06;4875646;29;20373;-77
2023/11/23 01:33:59;;;;;;;6.22;3.30;;;;;;;8.09;91.79;94283.59;4875707;29;20056;-77
2023/11/23 01:36:27;;;;;;;7.45;2.90;;;;;;;8.09;91.54;94286.25;4875784;29;20037;-77
2023/11/23 01:38:52;;;;;;;5.95;2.97;;;;;;;8.11;91.56;94281.44;4875453;29;20025;-77
2023/11/23 01:41:18;;;;;;;4.32;2.78;;;;;;;8.11;91.30;94284.88;4875669;29;20052;-77
2023/11/23 01:43:45;;;;;;;6.05;3.40;;;;;;;8.06;91.32;94284.97;4875693;29;20035;-77
2023/11/23 01:46:11;;;;;;;5.68;3.47;;;;;;;8.04;91.40;94289.78;4875706;29;20092;-76
2023/11/23 01:48:36;;;;;;;7.68;3.80;;;;;;;7.97;91.89;94290.09;4875368;29;20383;-77
2023/11/23 01:51:05;;;;;;;8.55;3.80;;;;;;;7.97;92.17;94294.63;4875441;29;20316;-77
2023/11/23 01:53:31;;;;;;;5.07;3.30;;;;;;;8.00;92.40;94288.78;4874028;29;20041;-78
2023/11/23 01:55:58;;;;;;;6.18;3.22;;;;;;;8.05;92.73;94291.34;4875359;29;20287;-78
2023/11/23 01:58:24;;;;;;;5.75;2.95;;;;;;;8.04;92.48;94295.09;4875354;29;20029;-78
2023/11/23 02:00:50;;;;;;;4.72;3.17;;;;;;;8.06;92.14;94305.41;4875523;29;20104;-78
2023/11/23 02:03:18;;;;;;;5.05;3.13;;;;;;;8.10;91.69;94298.44;4872650;29;20036;-78
2023/11/23 02:05:44;;;;;;;5.78;3.13;;;;;;;8.05;91.71;94307.28;4872418;29;20101;-78
2023/11/23 02:08:10;;;;;;;7.35;4.05;;;;;;;8.01;91.43;94304.38;4872490;29;20216;-81
2023/11/23 02:10:36;;;;;;;7.93;2.75;;;;;;;8.04;91.61;94303.06;4872782;29;20037;-81
2023/11/23 02:13:02;;;;;;;6.72;2.75;;;;;;;8.06;91.77;94310.72;4872153;29;20324;-79
2023/11/23 02:15:28;;;;;;;12.00;3.33;;;;;;;8.01;92.01;94300.97;4872288;29;20066;-80
2023/11/23 02:18:04;;;;;;;6.43;3.45;;;;;;;8.04;91.83;94300.41;4872357;29;20105;-80
2023/11/23 02:20:31;;;;;;;7.30;3.80;;;;;;;8.05;92.22;94299.31;4872353;29;20025;-80
2023/11/23 02:22:59;;;;;;;6.75;3.90;;;;;;;8.03;92.59;94299.59;4872163;29;20029;-80
2023/11/23 02:25:25;;;;;;;6.28;4.18;;;;;;;8.02;92.59;94294.59;4872148;29;20036;-80
2023/11/23 02:27:52;;;;;;;6.53;3.88;;;;;;;8.03;92.50;94304.91;4872412;29;20216;-80
2023/11/23 02:30:19;;;;;;;7.40;3.97;;;;;;;8.04;92.24;94295.09;4872326;29;20069;-79
2023/11/23 02:32:45;;;;;;;7.03;4.32;;;;;;;8.03;92.61;94293.50;4872125;29;20278;-79
2023/11/23 02:35:12;;;;;;;10.95;4.75;;;;;;;8.03;92.68;94294.28;4871938;29;20403;-79
2023/11/23 02:37:41;;;;;;;6.93;4.32;;;;;;;8.05;92.65;94299.31;4872213;29;20029;-79
2023/11/23 02:40:08;;;;;;;9.77;4.88;;;;;;;8.07;92.59;94299.81;4872109;29;20030;-79
2023/11/23 02:42:33;;;;;;;8.52;4.30;;;;;;;8.08;92.54;94306.72;4870397;29;20040;-78
2023/11/23 02:44:59;;;;;;;7.65;4.53;;;;;;;8.11;92.61;94306.13;4871782;29;20132;-78
2023/11/23 02:47:24;;;;;;;6.38;4.30;;;;;;;8.15;92.45;94306.34;4871596;29;20029;-78
2023/11/23 02:49:49;;;;;;;8.25;4.32;;;;;;;8.20;92.12;94315.03;4871755;29;20107;-78
2023/11/23 02:52:15;;;;;;;11.13;6.20;;;;;;;8.22;91.85;94315.56;4871766;29;20319;-79
2023/11/23 02:54:40;;;;;;;14.43;8.20;;;;;;;8.22;91.83;94310.25;4871541;29;20215;-79
2023/11/23 02:57:06;;;;;;;7.82;4.38;;;;;;;8.23;91.99;94325.09;4871695;29;20323;-79
2023/11/23 02:59:32;;;;;;;7.28;4.20;;;;;;;8.24;91.75;94325.88;4871596;29;20039;-75
2023/11/23 03:01:57;;;;;;;9.00;4.20;;;;;;;8.22;91.68;94330.66;4871264;29;20109;-76
2023/11/23 03:04:22;;;;;;;8.63;4.35;;;;;;;8.27;91.96;94337.81;4871333;29;20033;-76
2023/11/23 03:06:48;;;;;;;7.25;3.63;;;;;;;8.29;91.77;94346.28;4871407;29;20093;-76
2023/11/23 03:09:13;;;;;;;6.72;4.10;;;;;;;8.31;91.28;94349.44;4871272;29;20021;-76
2023/11/23 03:11:40;;;;;;;7.20;3.90;;;;;;;8.28;91.48;94350.00;4871445;29;20037;-76
2023/11/23 03:14:05;;;;;;;5.85;3.85;;;;;;;8.25;91.77;94346.03;4870930;29;20024;-76
2023/11/23 03:16:32;;;;;;;7.03;4.00;;;;;;;8.21;92.02;94340.50;4871107;29;20022;-79
2023/11/23 03:18:58;;;;;;;6.60;3.30;;;;;;;8.26;91.71;94350.28;4871230;29;20052;-77
2023/11/23 03:21:24;;;;;;;6.38;3.55;;;;;;;8.23;92.14;94348.19;4871142;29;20045;-77
2023/11/23 03:23:50;;;;;;;7.63;4.10;;;;;;;8.22;92.58;94344.75;4871416;29;20032;-78
2023/11/23 03:26:15;;;;;;;6.82;3.80;;;;;;;8.27;92.18;94351.09;4871123;29;20205;-78
2023/11/23 03:28:41;;;;;;;6.70;3.75;;;;;;;8.32;92.22;94346.47;4870877;29;20138;-77
2023/11/23 03:31:06;;;;;;;5.88;3.45;;;;;;;8.34;92.08;94348.84;4870983;29;20330;-77
2023/11/23 03:33:32;;;;;;;5.78;3.72;;;;;;;8.37;91.96;94356.25;4870955;29;20102;-77
2023/11/23 03:35:58;;;;;;;8.43;3.85;;;;;;;8.38;91.63;94344.53;4871048;29;20293;-78
2023/11/23 03:38:24;;;;;;;7.75;2.92;;;;;;;8.40;91.12;94345.81;4870808;29;20222;-77
2023/11/23 03:40:49;;;;;;;7.75;4.15;;;;;;;8.40;90.48;94345.81;4871120;29;20327;-77
2023/11/23 03:43:15;;;;;;;6.68;3.38;;;;;;;8.33;90.96;94358.69;4870768;29;20324;-78
2023/11/23 03:45:40;;;;;;;4.88;2.92;;;;;;;8.30;91.13;94351.28;4870911;29;20049;-78
2023/11/23 03:48:06;;;;;;;6.05;3.35;;;;;;;8.29;91.48;94354.25;4870846;29;20215;-78
2023/11/23 03:50:33;;;;;;;6.18;3.85;;;;;;;8.31;91.59;94349.44;4870606;29;20032;-78
2023/11/23 03:52:58;;;;;;;11.02;3.92;;;;;;;8.31;91.56;94352.09;4870491;29;20046;-78
2023/11/23 03:55:24;;;;;;;5.57;3.47;;;;;;;8.32;91.61;94356.31;4870568;29;20235;-78
2023/11/23 03:57:49;;;;;;;11.80;4.22;;;;;;;8.30;91.52;94361.13;4870709;29;20045;-78
2023/11/23 04:00:20;;;;;;;7.45;4.22;;;;;;;8.28;91.67;94360.63;4870390;29;20025;-78
2023/11/23 04:02:46;;;;;;;8.43;4.07;;;;;;;8.27;92.03;94364.34;4869099;29;20022;-78
2023/11/23 04:05:17;;;;;;;8.20;3.85;;;;;;;8.29;92.25;94352.38;4870455;29;20035;-80
2023/11/23 04:07:43;;;;;;;7.38;3.70;;;;;;;8.32;92.43;94358.97;4870358;29;20092;-80
2023/11/23 04:10:09;;;;;;;12.18;4.13;;;;;;;8.32;92.33;94351.00;4870852;29;20052;-80
2023/11/23 04:12:35;;;;;;;6.65;4.18;;;;;;;8.31;91.96;94360.84;4869317;29;20042;-81
2023/11/23 04:15:01;;;;;;;6.13;3.85;;;;;;;8.29;92.16;94364.88;4870689;29;20038;-80
2023/11/23 04:17:26;;;;;;;6.93;3.58;;;;;;;8.30;91.99;94366.44;4870093;29;20025;-80
2023/11/23 04:19:54;;;;;;;5.40;3.58;;;;;;;8.30;91.84;94369.88;4870515;29;20029;-78
2023/11/23 04:22:21;;;;;;;7.20;4.03;;;;;;;8.30;91.81;94366.44;4870240;29;20108;-78
2023/11/23 04:24:47;;;;;;;8.13;4.22;;;;;;;8.28;91.90;94365.91;4870301;29;20029;-78
2023/11/23 04:27:14;;;;;;;8.00;3.97;;;;;;;8.27;91.89;94378.41;4868386;29;20029;-78
2023/11/23 04:29:39;;;;;;;6.68;3.78;;;;;;;8.30;91.79;94377.06;4870043;29;20032;-79
2023/11/23 04:32:06;;;;;;;17.70;4.90;;;;;;;8.28;91.66;94376.53;4870265;29;20022;-79
2023/11/23 04:34:32;;;;;;;21.75;4.45;;;;;;;8.23;91.53;94374.75;4870298;29;20049;-79
2023/11/23 04:36:57;;;;;;;7.25;4.20;;;;;;;8.16;92.01;94366.34;4869883;29;20026;-78
2023/11/23 04:39:23;;;;;;;7.68;3.75;;;;;;;8.12;92.42;94370.63;4869935;29;20053;-78
2023/11/23 04:41:48;;;;;;;6.68;3.95;;;;;;;8.13;93.03;94383.63;4870134;29;20033;-78
2023/11/23 04:44:15;;;;;;;6.55;4.07;;;;;;;8.11;92.86;94380.47;4869911;29;20375;-78
2023/11/23 04:46:41;;;;;;;9.25;4.88;;;;;;;8.07;92.32;94373.38;4869818;29;20074;-79
2023/11/23 04:49:07;;;;;;;8.07;4.40;;;;;;;7.98;92.92;94370.56;4869746;29;20092;-79
2023/11/23 04:51:32;;;;;;;8.18;4.25;;;;;;;7.97;93.27;94376.94;4869944;29;20217;-79
2023/11/23 04:53:58;;;;;;;7.65;4.38;;;;;;;7.95;93.60;94379.84;4869589;29;20068;-78
2023/11/23 04:56:23;;;;;;;8.88;4.70;;;;;;;7.99;93.61;94388.06;4869631;29;20025;-79
2023/11/23 04:58:49;;;;;;;9.40;5.45;;;;;;;7.97;93.59;94390.19;4869910;29;20021;-79
2023/11/23 05:01:14;;;;;;;8.30;4.07;;;;;;;7.95;94.03;94385.16;4869603;29;20048;-79
2023/11/23 05:03:40;;;;;;;6.70;4.00;;;;;;;7.98;94.09;94389.13;4868723;29;20086;-80
2023/11/23 05:06:07;;;;;;;9.90;4.65;;;;;;;8.00;94.15;94387.78;4870170;29;20025;-79
2023/11/23 05:08:33;;;;;;;8.07;4.93;;;;;;;8.02;94.02;94376.88;4869700;29;20034;-78
2023/11/23 05:10:58;;;;;;;6.70;4.35;;;;;;;8.01;94.07;94385.91;4869609;29;20070;-79
2023/11/23 05:13:24;;;;;;;13.10;4.50;;;;;;;8.02;93.67;94382.19;4868232;29;20116;-79
2023/11/23 05:15:49;;;;;;;7.45;4.50;;;;;;;8.01;93.89;94393.88;4869922;29;20058;-80
2023/11/23 05:18:15;;;;;;;7.95;5.10;;;;;;;8.00;94.13;94389.66;4869679;29;20026;-79
2023/11/23 05:20:41;;;;;;;8.77;5.00;;;;;;;8.01;94.47;94386.69;4869613;29;20132;-79
2023/11/23 05:23:07;;;;;;;8.75;5.70;;;;;;;8.08;94.21;94389.00;4869501;29;20200;-79
2023/11/23 05:25:33;;;;;;;9.73;5.72;;;;;;;8.11;94.49;94396.41;4869524;29;20022;-78
2023/11/23 05:27:58;;;;;;;8.98;5.43;;;;;;;8.14;94.17;94395.03;4869444;29;20028;-78
2023/11/23 05:30:23;;;;;;;8.57;5.25;;;;;;;8.18;93.97;94412.78;4869638;29;20029;-78
2023/11/23 05:32:50;;;;;;;8.65;5.20;;;;;;;8.19;93.66;94395.78;4869558;29;20400;-79
2023/11/23 05:35:15;;;;;;;9.10;5.97;;;;;;;8.25;93.61;94388.53;4869574;29;20029;-79
2023/11/23 05:37:41;;;;;;;12.55;6.68;;;;;;;8.26;93.58;94384.00;4871060;29;20041;-80
2023/11/23 05:40:12;;;;;;;10.60;5.85;;;;;;;8.28;93.62;94385.28;4873251;29;20025;-81
2023/11/23 05:42:41;;;;;;;10.48;6.47;;;;;;;8.33;93.31;94392.44;4873212;29;20366;-81
2023/11/23 05:45:07;;;;;;;11.43;6.32;;;;;;;8.31;93.37;94397.25;4873331;29;20025;-80
2023/11/23 05:47:33;;;;;;;11.20;6.88;;;;;;;8.32;93.24;94412.88;4873000;29;20025;-80
2023/11/23 05:50:02;;;;;;;9.60;6.10;;;;;;;8.40;93.30;94411.44;4872722;29;20031;-79
2023/11/23 05:52:28;;;;;;;13.63;6.25;;;;;;;8.42;92.79;94407.44;4872624;29;20088;-80
2023/11/23 05:54:57;;;;;;;13.32;7.03;;;;;;;8.39;92.92;94418.63;4872616;29;20032;-78
2023/11/23 05:57:25;;;;;;;12.85;6.63;;;;;;;8.38;93.12;94421.56;4872573;29;20030;-77
2023/11/23 05:59:51;;;;;;;14.90;6.50;;;;;;;8.42;93.33;94430.59;4872785;29;20076;-77
2023/11/23 06:02:17;;;;;;;11.77;6.60;;;;;;;8.39;93.20;94431.13;4873053;29;20042;-77
2023/11/23 06:04:44;;;;;;;12.93;7.00;;;;;;;8.43;93.44;94432.19;4872616;29;20037;-77
2023/11/23 06:07:10;;;;;;;12.73;6.80;;;;;;;8.44;93.22;94439.84;4872790;29;20201;-77
2023/11/23 06:09:39;;;;;;;11.93;6.97;;;;;;;8.42;93.46;94443.84;4872686;29;20036;-77
2023/11/23 06:12:05;;;;;;;9.88;6.60;;;;;;;8.42;93.82;94454.50;4872664;29;20189;-78
2023/11/23 06:14:36;;;;;;;9.38;6.32;;;;;;;8.44;93.81;94442.50;4872688;29;20058;-77
2023/11/23 06:17:03;;;;;;;12.75;6.97;;;;;;;8.47;94.15;94437.69;4872494;29;20100;-81
2023/11/23 06:19:29;;;;;;;134.75;78.50;;;;;;;8.50;94.55;94432.59;4872469;29;20021;-77
2023/11/23 06:21:54;;;;;;;183.75;94.63;;;;;;;8.55;94.38;94439.75;4872399;29;20048;-77
2023/11/23 06:24:20;;;;;;;78.50;39.00;;;;;;;8.61;94.39;94451.88;4872795;29;20066;-78
2023/11/23 06:26:45;;;;;;;18.45;9.70;;;;;;;8.67;93.79;94461.38;4872742;29;20219;-80
2023/11/23 06:29:10;;;;;;;11.07;6.45;;;;;;;8.66;93.47;94461.66;4872245;29;20057;-80
2023/11/23 06:31:36;;;;;;;19.00;7.05;;;;;;;8.62;93.27;94456.88;4872465;29;20017;-76
2023/11/23 06:34:01;;;;;;;15.85;8.10;;;;;;;8.63;92.05;94458.47;4872609;29;20077;-76
2023/11/23 06:36:27;;;;;;;12.57;6.70;;;;;;;8.56;91.39;94462.56;4872286;29;20274;-77
2023/11/23 06:38:52;;;;;;;15.30;7.72;;;;;;;8.53;91.68;94461.28;4872539;29;20041;-75
2023/11/23 06:41:21;;;;;;;11.43;7.10;;;;;;;8.48;91.72;94450.69;4872345;29;20338;-76
2023/11/23 06:43:51;;;;;;;19.27;7.15;;;;;;;8.46;91.98;94452.06;4872456;29;20029;-76
2023/11/23 06:46:17;;;;;;;15.00;7.72;;;;;;;8.42;92.58;94444.66;4871344;29;20418;-77
2023/11/23 06:48:44;;;;;;;13.30;7.63;;;;;;;8.42;92.63;94447.31;4871433;29;20025;-76
2023/11/23 06:51:10;;;;;;;13.73;8.43;;;;;;;8.47;92.82;94446.47;4872087;29;20050;-76
2023/11/23 06:53:43;;;;;;;18.98;8.88;;;;;;;8.51;93.21;94450.13;4872180;29;20335;-75
2023/11/23 06:56:12;;;;;;;16.35;9.23;;;;;;;8.59;93.20;94440.75;4871594;29;20040;-75
2023/11/23 06:58:37;;;;;;;16.02;9.50;;;;;;;8.63;92.99;94449.72;4871868;29;20099;-75
2023/11/23 07:01:03;;;;;;;16.27;9.75;;;;;;;8.67;93.15;94433.97;4871509;29;20101;-75
2023/11/23 07:03:29;;;;;;;18.58;9.05;;;;;;;8.76;93.16;94445.56;4871663;29;20033;-75
2023/11/23 07:05:54;;;;;;;13.85;8.27;;;;;;;8.83;92.97;94438.81;4871524;29;20101;-75
2023/11/23 07:08:19;;;;;;;14.95;8.88;;;;;;;8.85;92.37;94427.88;4871733;29;20040;-74
2023/11/23 07:10:45;;;;;;;16.17;8.93;;;;;;;8.90;92.53;94441.09;4871334;29;20032;-74
2023/11/23 07:13:10;;;;;;;13.60;8.15;;;;;;;8.88;92.06;94429.97;4871447;29;20259;-75
2023/11/23 07:15:36;;;;;;;15.63;9.05;;;;;;;8.93;91.77;94432.53;4871325;29;20336;-75
2023/11/23 07:18:01;;;;;;;13.32;7.80;;;;;;;8.98;91.69;94443.13;4871495;29;20029;-75
2023/11/23 07:20:27;;;;;;;23.13;9.93;;;;;;;8.94;91.82;94449.31;4870994;29;20320;-75
2023/11/23 07:22:52;;;;;;;16.02;10.10;;;;;;;8.98;91.26;94456.41;4870662;29;20044;-76
2023/11/23 07:25:18;;;;;;;19.27;11.02;;;;;;;8.96;91.61;94463.88;4871054;29;20041;-77
2023/11/23 07:27:44;;;;;;;21.98;12.77;;;;;;;8.93;91.74;94467.09;4871046;29;20072;-76
2023/11/23 07:30:10;;;;;;;23.88;12.63;;;;;;;8.86;91.35;94472.00;4871117;29;20201;-76
2023/11/23 07:32:36;;;;;;;25.77;13.82;;;;;;;8.71;91.67;94466.88;4870941;29;20036;-76
2023/11/23 07:35:03;;;;;;;24.40;13.95;;;;;;;8.61;92.29;94468.59;4870870;29;20037;-76
2023/11/23 07:37:29;;;;;;;22.90;13.38;;;;;;;8.52;92.82;94454.34;4871252;29;20036;-76
2023/11/23 07:39:55;;;;;;;27.40;14.73;;;;;;;8.52;93.45;94454.34;4871350;29;20041;-76
2023/11/23 07:42:20;;;;;;;26.40;14.65;;;;;;;8.56;93.97;94457.25;4871413;29;20358;-76
2023/11/23 07:44:46;;;;;;;23.52;14.15;;;;;;;8.59;94.30;94457.47;4871186;29;20283;-77
2023/11/23 07:47:13;;;;;;;25.88;12.93;;;;;;;8.65;94.38;94468.84;4871150;29;20324;-76
2023/11/23 07:49:40;;;;;;;22.48;13.23;;;;;;;8.68;93.89;94475.44;4871037;29;20047;-76
2023/11/23 07:52:06;;;;;;;22.05;13.00;;;;;;;8.71;92.59;94458.91;4870805;29;20029;-76
2023/11/23 07:54:32;;;;;;;19.42;11.30;;;;;;;8.66;92.74;94453.69;4871184;29;20085;-76
2023/11/23 07:56:57;;;;;;;17.88;10.23;;;;;;;8.68;92.94;94448.88;4871249;29;20021;-76
2023/11/23 07:59:23;;;;;;;14.68;9.23;;;;;;;8.72;92.78;94449.88;4871096;29;20096;-77
2023/11/23 08:01:48;;;;;;;16.90;9.65;;;;;;;8.76;92.81;94448.22;4870120;29;20025;-78
2023/11/23 08:04:14;;;;;;;16.50;10.00;;;;;;;8.83;92.49;94448.63;4870951;29;20335;-78
2023/11/23 08:06:39;;;;;;;17.23;10.30;;;;;;;8.90;92.05;94438.44;4870823;29;20077;-77
2023/11/23 08:09:05;;;;;;;20.58;9.68;;;;;;;8.92;91.76;94441.63;4870405;29;20036;-79
2023/11/23 08:11:30;;;;;;;16.63;9.75;;;;;;;8.92;91.72;94449.59;4870799;29;20033;-79
2023/11/23 08:13:56;;;;;;;18.85;10.32;;;;;;;8.91;91.51;94450.66;4870790;29;20025;-78
2023/11/23 08:16:21;;;;;;;19.90;10.45;;;;;;;8.96;91.08;94449.81;4870909;29;20275;-79
2023/11/23 08:18:47;;;;;;;16.60;9.55;;;;;;;9.01;91.00;94445.19;4870981;29;20021;-79
2023/11/23 08:21:12;;;;;;;17.40;9.70;;;;;;;9.10;90.73;94448.00;4870787;29;20022;-79
2023/11/23 08:23:38;;;;;;;22.40;12.00;;;;;;;9.16;90.43;94443.38;4870734;29;20048;-79
2023/11/23 08:26:06;;;;;;;24.23;13.30;;;;;;;9.21;90.49;94443.31;4870597;29;20319;-79
2023/11/23 08:28:31;;;;;;;16.08;8.88;;;;;;;9.22;90.21;94448.34;4870537;29;20088;-79
2023/11/23 08:30:57;;;;;;;12.52;6.60;;;;;;;9.24;89.48;94453.38;4870701;29;20021;-76
2023/11/23 08:33:23;;;;;;;12.30;6.70;;;;;;;9.26;89.31;94448.56;4870301;29;20013;-76
2023/11/23 08:35:49;;;;;;;12.68;6.65;;;;;;;9.27;88.96;94452.78;4870644;29;20021;-76
2023/11/23 08:38:14;;;;;;;8.75;5.40;;;;;;;9.27;88.90;94452.78;4870311;29;20100;-76
2023/11/23 08:40:41;;;;;;;11.25;6.07;;;;;;;9.25;88.58;94454.97;4870213;29;20208;-78
2023/11/23 08:43:12;;;;;;;11.80;5.13;;;;;;;9.28;88.39;94453.56;4869047;29;20051;-76
2023/11/23 08:45:37;;;;;;;13.25;6.18;;;;;;;9.26;88.22;94455.75;4870278;29;20085;-76
2023/11/23 08:48:04;;;;;;;11.65;4.97;;;;;;;9.29;87.98;94453.28;4870296;29;20331;-77
2023/11/23 08:50:31;;;;;;;9.63;5.88;;;;;;;9.30;88.05;94446.09;4870240;29;20333;-77
2023/11/23 08:52:59;;;;;;;8.35;6.20;;;;;;;9.29;88.15;94450.63;4870194;29;20045;-76
2023/11/23 08:55:24;;;;;;;14.15;5.03;;;;;;;9.30;87.98;94449.56;4869726;29;20033;-76
2023/11/23 08:58:40;;;;;;;10.15;6.25;;;;;;;9.25;87.98;94449.63;4869985;29;20073;-75
2023/11/23 09:01:06;;;;;;;10.15;5.50;;;;;;;9.24;87.67;94445.41;4813106;29;20047;-76
2023/11/23 09:03:32;;;;;;;8.18;5.63;;;;;;;9.25;87.86;94441.66;4813061;29;20340;-78
2023/11/23 09:05:58;;;;;;;8.52;4.80;;;;;;;9.25;88.21;94446.97;4844089;29;20045;-79
2023/11/23 09:08:23;;;;;;;13.98;5.75;;;;;;;9.25;88.25;94449.63;4869526;29;20033;-78
2023/11/23 09:10:48;;;;;;;10.57;5.68;;;;;;;9.28;88.45;94446.41;4869817;29;20057;-78
2023/11/23 09:13:15;;;;;;;7.68;4.90;;;;;;;9.30;88.28;94444.25;4872133;29;20025;-80
2023/11/23 09:15:41;;;;;;;7.40;5.43;;;;;;;9.31;88.40;94437.84;4873665;29;20059;-79
2023/11/23 09:18:07;;;;;;;9.43;5.50;;;;;;;9.30;88.53;94436.28;4873444;29;20338;-80
2023/11/23 09:20:32;;;;;;;8.57;5.38;;;;;;;9.33;88.40;94435.69;4873472;29;20033;-79
2023/11/23 09:23:02;;;;;;;12.02;5.82;;;;;;;9.33;88.41;94426.91;4873199;29;20082;-78
2023/11/23 09:25:29;;;;;;;9.73;6.18;;;;;;;9.34;88.54;94425.81;4873354;29;20100;-79
2023/11/23 09:27:55;;;;;;;12.98;6.22;;;;;;;9.35;88.59;94420.22;4873359;29;20037;-80
2023/11/23 09:30:21;;;;;;;11.57;6.53;;;;;;;9.38;88.61;94416.97;4873457;29;20033;-79
2023/11/23 09:32:46;;;;;;;15.07;6.57;;;;;;;9.39;88.26;94413.22;4873336;29;20041;-79
2023/11/23 09:35:12;;;;;;;9.77;6.63;;;;;;;9.38;88.57;94422.31;4872321;29;20251;-80
2023/11/23 09:37:37;;;;;;;13.93;6.63;;;;;;;9.38;88.37;94411.66;4873498;29;20033;-78
2023/11/23 09:40:08;;;;;;;13.90;7.38;;;;;;;9.39;88.45;94413.22;4872996;29;20044;-78
2023/11/23 09:42:37;;;;;;;11.30;6.43;;;;;;;9.39;88.47;94420.44;4873227;29;20238;-79
2023/11/23 09:45:06;;;;;;;13.35;7.75;;;;;;;9.40;88.57;94419.34;4873107;29;20092;-80
2023/11/23 09:47:35;;;;;;;13.07;7.10;;;;;;;9.44;88.41;94415.00;4873150;29;20040;-80
2023/11/23 09:50:01;;;;;;;9.43;6.65;;;;;;;9.43;88.57;94416.88;4873108;29;20028;-81
2023/11/23 09:52:31;;;;;;;11.98;7.00;;;;;;;9.48;88.05;94417.88;4872812;29;20021;-80
2023/11/23 09:54:57;;;;;;;10.00;6.82;;;;;;;9.50;88.19;94418.38;4873045;29;20249;-80
2023/11/23 09:57:26;;;;;;;12.07;7.30;;;;;;;9.52;88.24;94417.00;4872903;29;20028;-80
2023/11/23 09:59:51;;;;;;;16.05;7.15;;;;;;;9.43;88.24;94416.88;4872837;29;20203;-78
2023/11/23 10:02:21;;;;;;;14.50;7.53;;;;;;;9.47;87.98;94408.34;4872847;29;20029;-77
2023/11/23 10:04:50;;;;;;;17.85;7.15;;;;;;;9.37;88.48;94404.75;4872844;29;20100;-78
2023/11/23 10:07:16;;;;;;;12.70;7.28;;;;;;;9.33;88.44;94401.09;4871764;29;20109;-78
2023/11/23 10:09:42;;;;;;;11.30;7.22;;;;;;;9.29;88.50;94394.78;4872808;29;20206;-79
2023/11/23 10:12:08;;;;;;;15.05;7.47;;;;;;;9.23;88.54;94399.38;4872422;29;20256;-76
2023/11/23 10:14:33;;;;;;;14.70;7.50;;;;;;;9.24;88.69;94394.88;4871416;29;20069;-79
2023/11/23 10:16:59;;;;;;;17.65;7.47;;;;;;;9.28;89.38;94397.72;4871624;29;20063;-79
2023/11/23 10:19:25;;;;;;;11.23;7.10;;;;;;;9.32;89.26;94385.41;4872746;29;20044;-79
2023/11/23 10:21:54;;;;;;;13.73;7.18;;;;;;;9.37;89.30;94380.81;4872666;29;20022;-79
2023/11/23 10:24:23;;;;;;;13.25;7.18;;;;;;;9.41;89.25;94384.47;4871515;29;20223;-79
2023/11/23 10:26:50;;;;;;;15.02;7.15;;;;;;;9.44;89.11;94383.88;4872473;29;20028;-79
2023/11/23 10:29:18;;;;;;;15.65;7.55;;;;;;;9.48;89.04;94375.31;4872237;29;20096;-79
2023/11/23 10:31:43;;;;;;;14.05;6.70;;;;;;;9.50;88.95;94373.13;4872230;29;20021;-79
2023/11/23 10:34:10;;;;;;;14.10;7.43;;;;;;;9.56;88.58;94371.97;4872399;29;20312;-79
2023/11/23 10:36:43;;;;;;;12.43;7.80;;;;;;;9.57;88.70;94361.03;4872410;29;20070;-80
2023/11/23 10:39:12;;;;;;;15.50;8.68;;;;;;;9.61;88.46;94353.25;4872652;29;20033;-79
2023/11/23 10:41:44;;;;;;;11.70;7.57;;;;;;;9.66;88.12;94358.47;4872332;29;20074;-79
2023/11/23 10:44:12;;;;;;;16.38;9.65;;;;;;;9.71;87.84;94361.06;4872241;29;20032;-79
2023/11/23 10:46:40;;;;;;;17.40;8.48;;;;;;;9.69;87.77;94354.44;4872315;29;20133;-79
2023/11/23 10:49:07;;;;;;;13.35;7.30;;;;;;;9.68;88.23;94345.66;4872162;29;20025;-79
2023/11/23 10:51:33;;;;;;;11.45;7.53;;;;;;;9.69;88.21;94347.25;4872220;29;20030;-80
2023/11/23 10:53:58;;;;;;;12.35;7.18;;;;;;;9.71;88.01;94339.75;4870821;29;20082;-80
2023/11/23 10:56:27;;;;;;;11.85;7.13;;;;;;;9.72;88.27;94345.88;4872125;29;20032;-79
2023/11/23 10:58:59;;;;;;;11.32;7.00;;;;;;;9.75;88.06;94339.94;4872237;29;20025;-79
2023/11/23 11:01:26;;;;;;;8.53;6.27;;;;;;;9.73;88.02;94332.28;4872223;29;20323;-79
2023/11/23 11:03:52;;;;;;;13.13;7.65;;;;;;;9.72;88.07;94333.34;4872077;29;20029;-78
2023/11/23 11:06:18;;;;;;;10.13;5.65;;;;;;;9.77;88.04;94314.63;4872169;29;20104;-79
2023/11/23 11:08:45;;;;;;;9.98;5.75;;;;;;;9.77;88.07;94313.81;4872003;29;20033;-79
2023/11/23 11:11:12;;;;;;;10.65;5.80;;;;;;;9.79;88.35;94314.31;4871577;29;20424;-79
2023/11/23 11:13:42;;;;;;;10.45;5.68;;;;;;;9.82;88.41;94319.06;4871776;29;20026;-76
2023/11/23 11:16:11;;;;;;;13.40;6.32;;;;;;;9.84;88.46;94322.97;4871567;29;20033;-78
2023/11/23 11:18:37;;;;;;;9.65;6.05;;;;;;;9.87;88.48;94320.81;4871622;29;20089;-79
2023/11/23 11:21:06;;;;;;;13.25;6.80;;;;;;;9.91;88.06;94327.13;4871937;29;20033;-78
2023/11/23 11:23:36;;;;;;;11.40;7.18;;;;;;;9.92;88.12;94318.06;4871315;29;20077;-79
2023/11/23 11:26:18;;;;;;;9.98;6.43;;;;;;;9.93;88.15;94308.97;4871374;29;20077;-79
2023/11/23 11:28:56;;;;;;;12.65;6.68;;;;;;;9.93;87.94;94306.31;4871812;29;20064;-79
2023/11/23 11:31:32;;;;;;;11.10;6.45;;;;;;;9.97;88.11;94315.28;4871394;29;20146;-79
2023/11/23 11:34:00;;;;;;;12.25;6.57;;;;;;;10.00;87.94;94298.72;4870413;29;20232;-79